Terminal Aerodrome Forecast
Issued by NWS

Home | Current Version | Previous Version | Text Only | Print | Product List | Glossary Off
Versions: 1 2 3 4 5 6 7 8 9 10 11 12 13 14 15 16 17 18 19 20 21 22 23 24 25

570
FTUS45 KGGW 230331 AAA
TAFOLF
TAF AMD
KOLF 230331Z 2304/2324 08011KT P6SM VCTS BKN100CB
     FM230900 33007KT P6SM VCSH SCT060
     FM231200 28013KT P6SM FEW140=

USA.gov is the U.S. government's official web portal to all federal, state and local government web resources and services.